sensor_id;sensor_type;location;lat;lon;timestamp;temperature;humidity
73254;DHT22;61474;50.834;4.552;2022-09-06T00:02:19;26.10;50.60
73254;DHT22;61474;50.834;4.552;2022-09-06T00:04:44;26.30;50.10
73254;DHT22;61474;50.834;4.552;2022-09-06T00:07:10;26.40;49.70
73254;DHT22;61474;50.834;4.552;2022-09-06T00:09:36;26.50;49.50
73254;DHT22;61474;50.834;4.552;2022-09-06T00:12:01;26.40;50.30
73254;DHT22;61474;50.834;4.552;2022-09-06T00:14:27;26.20;50.70
73254;DHT22;61474;50.834;4.552;2022-09-06T00:16:52;26.10;50.80
73254;DHT22;61474;50.834;4.552;2022-09-06T00:19:18;26.10;51.20
73254;DHT22;61474;50.834;4.552;2022-09-06T00:21:43;26.10;51.20
73254;DHT22;61474;50.834;4.552;2022-09-06T00:24:08;26.20;50.80
73254;DHT22;61474;50.834;4.552;2022-09-06T00:26:34;26.40;49.80
73254;DHT22;61474;50.834;4.552;2022-09-06T00:29:00;26.30;50.00
73254;DHT22;61474;50.834;4.552;2022-09-06T00:31:25;26.40;49.80
73254;DHT22;61474;50.834;4.552;2022-09-06T00:33:51;26.30;50.60
73254;DHT22;61474;50.834;4.552;2022-09-06T00:36:16;26.20;50.90
73254;DHT22;61474;50.834;4.552;2022-09-06T00:38:42;26.20;50.50
73254;DHT22;61474;50.834;4.552;2022-09-06T00:41:08;26.20;50.30
73254;DHT22;61474;50.834;4.552;2022-09-06T00:43:34;26.10;51.00
73254;DHT22;61474;50.834;4.552;2022-09-06T00:46:00;26.10;50.80
73254;DHT22;61474;50.834;4.552;2022-09-06T00:48:26;26.10;50.60
73254;DHT22;61474;50.834;4.552;2022-09-06T00:50:52;26.10;51.10
73254;DHT22;61474;50.834;4.552;2022-09-06T00:53:19;26.20;50.60
73254;DHT22;61474;50.834;4.552;2022-09-06T00:55:45;26.20;50.80
73254;DHT22;61474;50.834;4.552;2022-09-06T00:58:11;26.40;50.60
73254;DHT22;61474;50.834;4.552;2022-09-06T01:00:36;26.50;50.10
73254;DHT22;61474;50.834;4.552;2022-09-06T01:03:02;26.20;51.00
73254;DHT22;61474;50.834;4.552;2022-09-06T01:05:33;26.20;51.00
73254;DHT22;61474;50.834;4.552;2022-09-06T01:10:38;26.30;50.90
73254;DHT22;61474;50.834;4.552;2022-09-06T01:15:50;26.30;51.00
73254;DHT22;61474;50.834;4.552;2022-09-06T01:18:34;26.20;50.90
73254;DHT22;61474;50.834;4.552;2022-09-06T01:26:32;26.10;52.20
73254;DHT22;61474;50.834;4.552;2022-09-06T01:29:01;26.00;51.90
73254;DHT22;61474;50.834;4.552;2022-09-06T01:31:39;26.10;51.00
73254;DHT22;61474;50.834;4.552;2022-09-06T01:36:32;25.90;49.60
73254;DHT22;61474;50.834;4.552;2022-09-06T01:39:00;25.90;48.90
73254;DHT22;61474;50.834;4.552;2022-09-06T01:41:25;25.80;48.70
73254;DHT22;61474;50.834;4.552;2022-09-06T01:43:51;25.90;48.30
73254;DHT22;61474;50.834;4.552;2022-09-06T01:46:26;25.90;48.80
73254;DHT22;61474;50.834;4.552;2022-09-06T01:49:12;25.80;48.40
73254;DHT22;61474;50.834;4.552;2022-09-06T01:55:01;25.80;49.20
73254;DHT22;61474;50.834;4.552;2022-09-06T02:00:14;25.90;48.40
73254;DHT22;61474;50.834;4.552;2022-09-06T02:02:47;25.90;48.70
73254;DHT22;61474;50.834;4.552;2022-09-06T02:05:21;25.90;49.20
73254;DHT22;61474;50.834;4.552;2022-09-06T02:07:48;25.80;49.40
73254;DHT22;61474;50.834;4.552;2022-09-06T02:10:23;25.80;49.30
73254;DHT22;61474;50.834;4.552;2022-09-06T02:12:51;25.90;49.60
73254;DHT22;61474;50.834;4.552;2022-09-06T02:15:19;25.90;49.50
73254;DHT22;61474;50.834;4.552;2022-09-06T02:17:49;26.00;49.60
73254;DHT22;61474;50.834;4.552;2022-09-06T02:20:18;25.90;50.00
73254;DHT22;61474;50.834;4.552;2022-09-06T02:22:45;25.90;51.00
73254;DHT22;61474;50.834;4.552;2022-09-06T02:25:13;25.90;50.50
73254;DHT22;61474;50.834;4.552;2022-09-06T02:27:42;25.90;50.50
73254;DHT22;61474;50.834;4.552;2022-09-06T02:30:08;25.80;50.80
73254;DHT22;61474;50.834;4.552;2022-09-06T02:32:36;25.80;51.10
73254;DHT22;61474;50.834;4.552;2022-09-06T02:35:04;25.80;51.30
73254;DHT22;61474;50.834;4.552;2022-09-06T02:37:31;25.80;51.80
73254;DHT22;61474;50.834;4.552;2022-09-06T02:39:57;25.80;51.60
73254;DHT22;61474;50.834;4.552;2022-09-06T02:42:22;25.90;51.50
73254;DHT22;61474;50.834;4.552;2022-09-06T02:44:48;25.80;51.60
73254;DHT22;61474;50.834;4.552;2022-09-06T02:47:14;25.90;52.10
73254;DHT22;61474;50.834;4.552;2022-09-06T02:49:39;25.80;51.90
73254;DHT22;61474;50.834;4.552;2022-09-06T02:52:05;25.80;51.90
73254;DHT22;61474;50.834;4.552;2022-09-06T02:54:30;25.80;51.90
73254;DHT22;61474;50.834;4.552;2022-09-06T02:56:56;26.00;51.60
73254;DHT22;61474;50.834;4.552;2022-09-06T02:59:22;25.80;52.00
73254;DHT22;61474;50.834;4.552;2022-09-06T03:01:47;25.60;52.90
73254;DHT22;61474;50.834;4.552;2022-09-06T03:04:13;25.60;52.60
73254;DHT22;61474;50.834;4.552;2022-09-06T03:06:38;25.60;52.50
73254;DHT22;61474;50.834;4.552;2022-09-06T03:09:03;25.60;52.20
73254;DHT22;61474;50.834;4.552;2022-09-06T03:11:29;25.50;52.50
73254;DHT22;61474;50.834;4.552;2022-09-06T03:13:54;25.60;52.60
73254;DHT22;61474;50.834;4.552;2022-09-06T03:16:20;25.60;52.70
73254;DHT22;61474;50.834;4.552;2022-09-06T03:18:46;25.80;52.00
73254;DHT22;61474;50.834;4.552;2022-09-06T03:21:12;25.50;52.20
73254;DHT22;61474;50.834;4.552;2022-09-06T03:23:37;25.40;52.60
73254;DHT22;61474;50.834;4.552;2022-09-06T03:26:04;25.30;52.90
73254;DHT22;61474;50.834;4.552;2022-09-06T03:28:29;25.20;53.10
73254;DHT22;61474;50.834;4.552;2022-09-06T03:30:55;25.10;53.20
73254;DHT22;61474;50.834;4.552;2022-09-06T03:33:20;25.20;52.70
73254;DHT22;61474;50.834;4.552;2022-09-06T03:38:14;25.50;52.20
73254;DHT22;61474;50.834;4.552;2022-09-06T03:40:39;25.50;51.80
73254;DHT22;61474;50.834;4.552;2022-09-06T03:43:05;25.40;52.00
73254;DHT22;61474;50.834;4.552;2022-09-06T03:45:30;25.50;52.30
73254;DHT22;61474;50.834;4.552;2022-09-06T03:47:55;25.40;52.80
73254;DHT22;61474;50.834;4.552;2022-09-06T03:50:21;25.50;52.30
73254;DHT22;61474;50.834;4.552;2022-09-06T03:52:46;25.50;51.70
73254;DHT22;61474;50.834;4.552;2022-09-06T03:55:12;25.50;51.50
73254;DHT22;61474;50.834;4.552;2022-09-06T03:57:37;25.50;51.40
73254;DHT22;61474;50.834;4.552;2022-09-06T04:00:03;25.50;52.00
73254;DHT22;61474;50.834;4.552;2022-09-06T04:02:28;25.50;52.20
73254;DHT22;61474;50.834;4.552;2022-09-06T04:04:54;25.50;51.80
73254;DHT22;61474;50.834;4.552;2022-09-06T04:07:20;25.80;51.00
73254;DHT22;61474;50.834;4.552;2022-09-06T04:09:46;25.80;51.80
73254;DHT22;61474;50.834;4.552;2022-09-06T04:12:11;25.70;52.00
73254;DHT22;61474;50.834;4.552;2022-09-06T04:14:36;25.70;51.40
73254;DHT22;61474;50.834;4.552;2022-09-06T04:17:02;25.70;51.20
73254;DHT22;61474;50.834;4.552;2022-09-06T04:19:27;26.00;50.80
73254;DHT22;61474;50.834;4.552;2022-09-06T04:21:53;26.00;50.60
73254;DHT22;61474;50.834;4.552;2022-09-06T04:24:18;25.80;51.60
73254;DHT22;61474;50.834;4.552;2022-09-06T04:26:44;25.80;51.40
73254;DHT22;61474;50.834;4.552;2022-09-06T04:29:09;25.80;51.00
73254;DHT22;61474;50.834;4.552;2022-09-06T04:31:35;26.00;50.90
73254;DHT22;61474;50.834;4.552;2022-09-06T04:34:00;26.00;50.70
73254;DHT22;61474;50.834;4.552;2022-09-06T04:36:25;25.90;51.00
73254;DHT22;61474;50.834;4.552;2022-09-06T04:38:51;25.80;51.20
73254;DHT22;61474;50.834;4.552;2022-09-06T04:41:16;25.80;51.40
73254;DHT22;61474;50.834;4.552;2022-09-06T04:43:42;25.90;51.30
73254;DHT22;61474;50.834;4.552;2022-09-06T04:48:36;25.90;51.90
73254;DHT22;61474;50.834;4.552;2022-09-06T04:51:02;25.90;51.50
73254;DHT22;61474;50.834;4.552;2022-09-06T04:53:27;25.90;51.40
73254;DHT22;61474;50.834;4.552;2022-09-06T04:55:54;26.00;51.60
73254;DHT22;61474;50.834;4.552;2022-09-06T04:58:20;25.90;51.60
73254;DHT22;61474;50.834;4.552;2022-09-06T05:00:46;25.80;52.20
73254;DHT22;61474;50.834;4.552;2022-09-06T05:03:11;25.80;52.30
73254;DHT22;61474;50.834;4.552;2022-09-06T05:05:37;25.80;52.40
73254;DHT22;61474;50.834;4.552;2022-09-06T05:08:02;25.90;52.40
73254;DHT22;61474;50.834;4.552;2022-09-06T05:10:28;26.00;52.20
73254;DHT22;61474;50.834;4.552;2022-09-06T05:12:53;26.00;52.30
73254;DHT22;61474;50.834;4.552;2022-09-06T05:15:19;25.90;52.80
73254;DHT22;61474;50.834;4.552;2022-09-06T05:17:45;25.80;52.70
73254;DHT22;61474;50.834;4.552;2022-09-06T05:20:11;25.80;52.90
73254;DHT22;61474;50.834;4.552;2022-09-06T05:22:37;25.80;52.60
73254;DHT22;61474;50.834;4.552;2022-09-06T05:25:02;25.90;52.70
73254;DHT22;61474;50.834;4.552;2022-09-06T05:27:28;25.80;53.00
73254;DHT22;61474;50.834;4.552;2022-09-06T05:29:53;25.90;52.80
73254;DHT22;61474;50.834;4.552;2022-09-06T05:32:19;26.10;52.30
73254;DHT22;61474;50.834;4.552;2022-09-06T05:34:44;25.80;53.00
73254;DHT22;61474;50.834;4.552;2022-09-06T05:37:10;25.40;54.10
73254;DHT22;61474;50.834;4.552;2022-09-06T05:39:35;25.20;54.70
73254;DHT22;61474;50.834;4.552;2022-09-06T05:42:01;25.00;55.20
73254;DHT22;61474;50.834;4.552;2022-09-06T05:44:34;25.10;55.20
73254;DHT22;61474;50.834;4.552;2022-09-06T05:46:59;25.00;55.50
73254;DHT22;61474;50.834;4.552;2022-09-06T05:49:25;25.00;55.60
73254;DHT22;61474;50.834;4.552;2022-09-06T05:51:52;25.10;55.50
73254;DHT22;61474;50.834;4.552;2022-09-06T05:54:18;25.20;55.40
73254;DHT22;61474;50.834;4.552;2022-09-06T05:56:43;25.20;55.10
73254;DHT22;61474;50.834;4.552;2022-09-06T05:59:09;25.20;55.40
73254;DHT22;61474;50.834;4.552;2022-09-06T06:01:34;25.20;55.00
73254;DHT22;61474;50.834;4.552;2022-09-06T06:04:01;25.20;55.10
73254;DHT22;61474;50.834;4.552;2022-09-06T06:06:27;25.30;54.90
73254;DHT22;61474;50.834;4.552;2022-09-06T06:08:53;25.20;55.00
73254;DHT22;61474;50.834;4.552;2022-09-06T06:11:19;25.20;55.20
73254;DHT22;61474;50.834;4.552;2022-09-06T06:13:44;25.10;55.20
73254;DHT22;61474;50.834;4.552;2022-09-06T06:16:11;25.10;55.40
73254;DHT22;61474;50.834;4.552;2022-09-06T06:18:36;25.10;55.50
73254;DHT22;61474;50.834;4.552;2022-09-06T06:21:05;25.00;55.50
73254;DHT22;61474;50.834;4.552;2022-09-06T06:23:31;25.10;55.50
73254;DHT22;61474;50.834;4.552;2022-09-06T06:25:56;25.10;55.50
73254;DHT22;61474;50.834;4.552;2022-09-06T06:28:22;25.00;55.80
73254;DHT22;61474;50.834;4.552;2022-09-06T06:30:47;25.00;55.70
73254;DHT22;61474;50.834;4.552;2022-09-06T06:33:14;25.00;55.70
73254;DHT22;61474;50.834;4.552;2022-09-06T06:35:39;25.20;55.20
73254;DHT22;61474;50.834;4.552;2022-09-06T06:38:05;25.20;55.20
73254;DHT22;61474;50.834;4.552;2022-09-06T06:40:30;25.30;55.00
73254;DHT22;61474;50.834;4.552;2022-09-06T06:42:55;25.30;54.80
73254;DHT22;61474;50.834;4.552;2022-09-06T06:45:21;25.20;55.10
73254;DHT22;61474;50.834;4.552;2022-09-06T06:47:50;25.20;55.10
73254;DHT22;61474;50.834;4.552;2022-09-06T06:50:15;25.20;55.10
73254;DHT22;61474;50.834;4.552;2022-09-06T06:52:41;25.20;55.10
73254;DHT22;61474;50.834;4.552;2022-09-06T06:55:07;25.30;55.20
73254;DHT22;61474;50.834;4.552;2022-09-06T06:57:32;25.30;55.20
73254;DHT22;61474;50.834;4.552;2022-09-06T06:59:58;25.40;55.20
73254;DHT22;61474;50.834;4.552;2022-09-06T07:02:23;25.50;55.00
73254;DHT22;61474;50.834;4.552;2022-09-06T07:04:49;25.50;54.80
73254;DHT22;61474;50.834;4.552;2022-09-06T07:07:14;25.60;54.70
73254;DHT22;61474;50.834;4.552;2022-09-06T07:09:40;25.60;54.70
73254;DHT22;61474;50.834;4.552;2022-09-06T07:12:06;25.50;54.70
73254;DHT22;61474;50.834;4.552;2022-09-06T07:14:31;25.40;54.80
73254;DHT22;61474;50.834;4.552;2022-09-06T07:16:57;25.40;54.80
73254;DHT22;61474;50.834;4.552;2022-09-06T07:19:23;25.40;54.50
73254;DHT22;61474;50.834;4.552;2022-09-06T07:21:49;25.40;54.40
73254;DHT22;61474;50.834;4.552;2022-09-06T07:24:15;25.40;54.40
73254;DHT22;61474;50.834;4.552;2022-09-06T07:26:40;25.40;54.40
73254;DHT22;61474;50.834;4.552;2022-09-06T07:29:07;25.30;54.30
73254;DHT22;61474;50.834;4.552;2022-09-06T07:31:33;25.40;54.30
73254;DHT22;61474;50.834;4.552;2022-09-06T07:33:59;25.40;54.10
73254;DHT22;61474;50.834;4.552;2022-09-06T07:36:25;25.40;54.00
73254;DHT22;61474;50.834;4.552;2022-09-06T07:38:51;25.40;54.10
73254;DHT22;61474;50.834;4.552;2022-09-06T07:41:17;25.30;54.10
73254;DHT22;61474;50.834;4.552;2022-09-06T07:43:43;25.30;54.30
73254;DHT22;61474;50.834;4.552;2022-09-06T07:46:10;25.20;54.20
73254;DHT22;61474;50.834;4.552;2022-09-06T07:48:37;25.20;54.10
73254;DHT22;61474;50.834;4.552;2022-09-06T07:51:05;25.20;54.20
73254;DHT22;61474;50.834;4.552;2022-09-06T07:53:31;25.20;54.10
73254;DHT22;61474;50.834;4.552;2022-09-06T07:55:57;25.20;54.30
73254;DHT22;61474;50.834;4.552;2022-09-06T07:58:23;25.20;54.20
73254;DHT22;61474;50.834;4.552;2022-09-06T08:00:48;25.20;54.30
73254;DHT22;61474;50.834;4.552;2022-09-06T08:03:14;25.20;54.20
73254;DHT22;61474;50.834;4.552;2022-09-06T08:05:39;25.20;54.30
73254;DHT22;61474;50.834;4.552;2022-09-06T08:08:05;25.20;54.50
73254;DHT22;61474;50.834;4.552;2022-09-06T08:10:30;25.20;54.40
73254;DHT22;61474;50.834;4.552;2022-09-06T08:12:56;25.20;55.10
73254;DHT22;61474;50.834;4.552;2022-09-06T08:15:21;25.20;54.50
73254;DHT22;61474;50.834;4.552;2022-09-06T08:17:48;25.20;54.50
73254;DHT22;61474;50.834;4.552;2022-09-06T08:20:13;25.20;54.50
73254;DHT22;61474;50.834;4.552;2022-09-06T08:22:39;25.20;54.90
73254;DHT22;61474;50.834;4.552;2022-09-06T08:25:04;25.20;54.70
73254;DHT22;61474;50.834;4.552;2022-09-06T08:27:30;25.20;54.70
73254;DHT22;61474;50.834;4.552;2022-09-06T08:29:55;25.20;54.80
73254;DHT22;61474;50.834;4.552;2022-09-06T08:32:21;25.20;54.70
73254;DHT22;61474;50.834;4.552;2022-09-06T08:34:46;25.20;54.80
73254;DHT22;61474;50.834;4.552;2022-09-06T08:37:12;25.20;54.80
73254;DHT22;61474;50.834;4.552;2022-09-06T08:39:37;25.20;54.90
73254;DHT22;61474;50.834;4.552;2022-09-06T08:42:03;25.30;54.90
73254;DHT22;61474;50.834;4.552;2022-09-06T08:47:01;25.30;54.80
73254;DHT22;61474;50.834;4.552;2022-09-06T08:49:31;25.40;54.80
73254;DHT22;61474;50.834;4.552;2022-09-06T08:54:52;25.40;55.00
73254;DHT22;61474;50.834;4.552;2022-09-06T09:00:04;25.60;53.80
73254;DHT22;61474;50.834;4.552;2022-09-06T09:05:22;25.70;53.50
73254;DHT22;61474;50.834;4.552;2022-09-06T09:08:04;25.80;53.50
73254;DHT22;61474;50.834;4.552;2022-09-06T09:10:39;25.70;53.30
73254;DHT22;61474;50.834;4.552;2022-09-06T09:13:06;25.80;53.30
73254;DHT22;61474;50.834;4.552;2022-09-06T09:15:32;25.80;53.30
73254;DHT22;61474;50.834;4.552;2022-09-06T09:17:59;25.80;53.10
73254;DHT22;61474;50.834;4.552;2022-09-06T09:20:24;25.80;53.10
73254;DHT22;61474;50.834;4.552;2022-09-06T09:22:49;25.80;53.00
73254;DHT22;61474;50.834;4.552;2022-09-06T09:25:17;25.90;53.10
73254;DHT22;61474;50.834;4.552;2022-09-06T09:27:43;25.90;53.00
73254;DHT22;61474;50.834;4.552;2022-09-06T09:30:09;25.90;52.90
73254;DHT22;61474;50.834;4.552;2022-09-06T09:32:36;25.90;52.90
73254;DHT22;61474;50.834;4.552;2022-09-06T09:37:44;25.90;53.00
73254;DHT22;61474;50.834;4.552;2022-09-06T09:40:32;25.90;52.90
73254;DHT22;61474;50.834;4.552;2022-09-06T09:43:06;25.90;53.00
73254;DHT22;61474;50.834;4.552;2022-09-06T09:45:33;25.90;53.00
73254;DHT22;61474;50.834;4.552;2022-09-06T09:48:14;25.90;53.00
73254;DHT22;61474;50.834;4.552;2022-09-06T09:50:40;25.90;52.90
73254;DHT22;61474;50.834;4.552;2022-09-06T09:53:06;25.80;53.50
73254;DHT22;61474;50.834;4.552;2022-09-06T09:55:31;25.90;53.10
73254;DHT22;61474;50.834;4.552;2022-09-06T09:57:57;25.90;53.00
73254;DHT22;61474;50.834;4.552;2022-09-06T10:00:33;25.90;53.10
73254;DHT22;61474;50.834;4.552;2022-09-06T10:02:59;25.90;52.70
73254;DHT22;61474;50.834;4.552;2022-09-06T10:05:25;25.90;52.90
73254;DHT22;61474;50.834;4.552;2022-09-06T10:07:52;25.90;52.70
73254;DHT22;61474;50.834;4.552;2022-09-06T10:10:26;25.90;52.80
73254;DHT22;61474;50.834;4.552;2022-09-06T10:15:56;26.00;52.50
73254;DHT22;61474;50.834;4.552;2022-09-06T10:20:58;26.10;52.50
73254;DHT22;61474;50.834;4.552;2022-09-06T10:26:40;26.00;52.30
73254;DHT22;61474;50.834;4.552;2022-09-06T10:28:39;26.00;52.30
73254;DHT22;61474;50.834;4.552;2022-09-06T10:31:32;26.00;52.30
73254;DHT22;61474;50.834;4.552;2022-09-06T10:34:07;26.00;52.40
73254;DHT22;61474;50.834;4.552;2022-09-06T10:36:35;26.10;52.40
73254;DHT22;61474;50.834;4.552;2022-09-06T10:39:13;26.10;52.40
73254;DHT22;61474;50.834;4.552;2022-09-06T10:46:54;26.00;52.50
73254;DHT22;61474;50.834;4.552;2022-09-06T10:49:23;26.10;52.50
73254;DHT22;61474;50.834;4.552;2022-09-06T10:51:51;26.00;52.50
73254;DHT22;61474;50.834;4.552;2022-09-06T10:54:19;26.10;52.60
73254;DHT22;61474;50.834;4.552;2022-09-06T10:59:24;26.10;52.60
73254;DHT22;61474;50.834;4.552;2022-09-06T11:02:11;26.10;52.50
73254;DHT22;61474;50.834;4.552;2022-09-06T11:04:40;26.10;52.50
73254;DHT22;61474;50.834;4.552;2022-09-06T11:09:50;26.10;52.40
73254;DHT22;61474;50.834;4.552;2022-09-06T11:14:48;26.10;52.50
73254;DHT22;61474;50.834;4.552;2022-09-06T11:22:50;26.10;52.70
73254;DHT22;61474;50.834;4.552;2022-09-06T11:27:45;26.10;52.60
73254;DHT22;61474;50.834;4.552;2022-09-06T11:30:15;26.10;52.70
73254;DHT22;61474;50.834;4.552;2022-09-06T11:32:42;26.10;52.60
73254;DHT22;61474;50.834;4.552;2022-09-06T11:35:19;26.10;52.50
73254;DHT22;61474;50.834;4.552;2022-09-06T11:37:45;26.10;52.60
73254;DHT22;61474;50.834;4.552;2022-09-06T11:47:45;26.20;52.80
73254;DHT22;61474;50.834;4.552;2022-09-06T11:50:22;26.10;52.70
73254;DHT22;61474;50.834;4.552;2022-09-06T11:55:13;26.20;52.90
73254;DHT22;61474;50.834;4.552;2022-09-06T11:57:41;26.20;52.80
73254;DHT22;61474;50.834;4.552;2022-09-06T12:00:07;26.10;52.70
73254;DHT22;61474;50.834;4.552;2022-09-06T12:02:41;26.20;53.20
73254;DHT22;61474;50.834;4.552;2022-09-06T12:05:10;26.20;52.80
73254;DHT22;61474;50.834;4.552;2022-09-06T12:07:37;26.20;53.00
73254;DHT22;61474;50.834;4.552;2022-09-06T12:12:47;26.20;53.10
73254;DHT22;61474;50.834;4.552;2022-09-06T12:15:28;26.20;53.00
73254;DHT22;61474;50.834;4.552;2022-09-06T12:17:54;26.20;52.90
73254;DHT22;61474;50.834;4.552;2022-09-06T12:23:04;26.20;52.90
73254;DHT22;61474;50.834;4.552;2022-09-06T12:33:00;26.20;53.10
73254;DHT22;61474;50.834;4.552;2022-09-06T12:35:27;26.20;52.90
73254;DHT22;61474;50.834;4.552;2022-09-06T12:37:59;26.20;52.90
73254;DHT22;61474;50.834;4.552;2022-09-06T12:40:25;26.20;52.90
73254;DHT22;61474;50.834;4.552;2022-09-06T12:42:51;26.20;52.90
73254;DHT22;61474;50.834;4.552;2022-09-06T12:45:18;26.20;53.10
73254;DHT22;61474;50.834;4.552;2022-09-06T12:47:45;26.20;52.90
73254;DHT22;61474;50.834;4.552;2022-09-06T12:52:45;26.20;53.10
73254;DHT22;61474;50.834;4.552;2022-09-06T12:55:15;26.20;52.90
73254;DHT22;61474;50.834;4.552;2022-09-06T12:57:45;26.20;53.10
73254;DHT22;61474;50.834;4.552;2022-09-06T13:00:11;26.30;53.10
73254;DHT22;61474;50.834;4.552;2022-09-06T13:02:49;26.20;52.90
73254;DHT22;61474;50.834;4.552;2022-09-06T13:05:16;26.20;52.90
73254;DHT22;61474;50.834;4.552;2022-09-06T13:08:01;26.20;53.20
73254;DHT22;61474;50.834;4.552;2022-09-06T13:10:27;26.20;53.10
73254;DHT22;61474;50.834;4.552;2022-09-06T13:12:54;26.20;53.80
73254;DHT22;61474;50.834;4.552;2022-09-06T13:15:27;26.20;53.00
73254;DHT22;61474;50.834;4.552;2022-09-06T13:17:54;26.20;53.20
73254;DHT22;61474;50.834;4.552;2022-09-06T13:20:38;26.30;53.30
73254;DHT22;61474;50.834;4.552;2022-09-06T13:23:05;26.20;53.10
73254;DHT22;61474;50.834;4.552;2022-09-06T13:25:31;26.30;53.60
73254;DHT22;61474;50.834;4.552;2022-09-06T13:27:57;26.30;53.20
73254;DHT22;61474;50.834;4.552;2022-09-06T13:30:39;26.30;53.40
73254;DHT22;61474;50.834;4.552;2022-09-06T13:33:24;26.30;53.30
73254;DHT22;61474;50.834;4.552;2022-09-06T13:35:51;26.30;53.40
73254;DHT22;61474;50.834;4.552;2022-09-06T13:38:32;26.30;53.20
73254;DHT22;61474;50.834;4.552;2022-09-06T13:40:58;26.20;53.20
73254;DHT22;61474;50.834;4.552;2022-09-06T13:43:24;26.30;53.30
73254;DHT22;61474;50.834;4.552;2022-09-06T13:46:03;26.20;53.00
73254;DHT22;61474;50.834;4.552;2022-09-06T13:48:28;26.20;53.20
73254;DHT22;61474;50.834;4.552;2022-09-06T13:50:54;26.30;53.40
73254;DHT22;61474;50.834;4.552;2022-09-06T13:53:19;26.30;53.20
73254;DHT22;61474;50.834;4.552;2022-09-06T13:55:45;26.30;53.60
73254;DHT22;61474;50.834;4.552;2022-09-06T13:58:10;26.30;53.30
73254;DHT22;61474;50.834;4.552;2022-09-06T14:00:36;26.30;54.00
73254;DHT22;61474;50.834;4.552;2022-09-06T14:03:03;26.30;53.10
73254;DHT22;61474;50.834;4.552;2022-09-06T14:05:29;26.30;53.60
73254;DHT22;61474;50.834;4.552;2022-09-06T14:07:54;26.30;53.50
73254;DHT22;61474;50.834;4.552;2022-09-06T14:10:19;26.30;53.20
73254;DHT22;61474;50.834;4.552;2022-09-06T14:12:48;26.30;53.20
73254;DHT22;61474;50.834;4.552;2022-09-06T14:15:13;26.30;53.30
73254;DHT22;61474;50.834;4.552;2022-09-06T14:17:39;26.30;53.30
73254;DHT22;61474;50.834;4.552;2022-09-06T14:20:04;26.30;53.10
73254;DHT22;61474;50.834;4.552;2022-09-06T14:22:30;26.30;53.30
73254;DHT22;61474;50.834;4.552;2022-09-06T14:24:55;26.30;53.30
73254;DHT22;61474;50.834;4.552;2022-09-06T14:27:21;26.30;53.00
73254;DHT22;61474;50.834;4.552;2022-09-06T14:29:47;26.30;53.10
73254;DHT22;61474;50.834;4.552;2022-09-06T14:32:13;26.30;52.80
73254;DHT22;61474;50.834;4.552;2022-09-06T14:34:39;26.30;52.80
73254;DHT22;61474;50.834;4.552;2022-09-06T14:37:05;26.30;53.10
73254;DHT22;61474;50.834;4.552;2022-09-06T14:39:30;26.30;53.00
73254;DHT22;61474;50.834;4.552;2022-09-06T14:41:56;26.30;53.10
73254;DHT22;61474;50.834;4.552;2022-09-06T14:44:21;26.30;53.10
73254;DHT22;61474;50.834;4.552;2022-09-06T14:46:47;26.30;53.10
73254;DHT22;61474;50.834;4.552;2022-09-06T14:49:13;26.30;53.10
73254;DHT22;61474;50.834;4.552;2022-09-06T14:51:38;26.30;53.30
73254;DHT22;61474;50.834;4.552;2022-09-06T14:54:06;26.30;53.20
73254;DHT22;61474;50.834;4.552;2022-09-06T14:56:31;26.30;53.00
73254;DHT22;61474;50.834;4.552;2022-09-06T14:58:57;26.30;53.10
73254;DHT22;61474;50.834;4.552;2022-09-06T15:01:24;26.30;53.10
73254;DHT22;61474;50.834;4.552;2022-09-06T15:03:52;26.30;53.10
73254;DHT22;61474;50.834;4.552;2022-09-06T15:06:19;26.40;53.20
73254;DHT22;61474;50.834;4.552;2022-09-06T15:08:45;26.40;53.20
73254;DHT22;61474;50.834;4.552;2022-09-06T15:11:11;26.40;53.20
73254;DHT22;61474;50.834;4.552;2022-09-06T15:13:37;26.40;53.20
73254;DHT22;61474;50.834;4.552;2022-09-06T15:16:03;26.40;53.20
73254;DHT22;61474;50.834;4.552;2022-09-06T15:18:30;26.30;53.30
73254;DHT22;61474;50.834;4.552;2022-09-06T15:20:55;26.30;53.10
73254;DHT22;61474;50.834;4.552;2022-09-06T15:23:21;26.30;53.30
73254;DHT22;61474;50.834;4.552;2022-09-06T15:25:50;26.30;53.10
73254;DHT22;61474;50.834;4.552;2022-09-06T15:28:16;26.30;53.20
73254;DHT22;61474;50.834;4.552;2022-09-06T15:30:46;26.40;53.10
73254;DHT22;61474;50.834;4.552;2022-09-06T15:33:12;26.40;52.90
73254;DHT22;61474;50.834;4.552;2022-09-06T15:35:40;26.40;52.90
73254;DHT22;61474;50.834;4.552;2022-09-06T15:38:05;26.40;52.80
73254;DHT22;61474;50.834;4.552;2022-09-06T15:40:31;26.40;53.00
73254;DHT22;61474;50.834;4.552;2022-09-06T15:42:56;26.40;52.90
73254;DHT22;61474;50.834;4.552;2022-09-06T15:45:21;26.40;52.70
73254;DHT22;61474;50.834;4.552;2022-09-06T15:47:47;26.40;52.80
73254;DHT22;61474;50.834;4.552;2022-09-06T15:50:12;26.40;52.80
73254;DHT22;61474;50.834;4.552;2022-09-06T15:52:39;26.40;52.70
73254;DHT22;61474;50.834;4.552;2022-09-06T15:55:04;26.40;52.80
73254;DHT22;61474;50.834;4.552;2022-09-06T15:57:48;26.30;53.10
73254;DHT22;61474;50.834;4.552;2022-09-06T16:00:14;26.40;52.80
73254;DHT22;61474;50.834;4.552;2022-09-06T16:02:41;26.40;53.30
73254;DHT22;61474;50.834;4.552;2022-09-06T16:05:07;26.40;53.50
73254;DHT22;61474;50.834;4.552;2022-09-06T16:07:32;26.40;53.20
73254;DHT22;61474;50.834;4.552;2022-09-06T16:09:58;26.40;53.20
73254;DHT22;61474;50.834;4.552;2022-09-06T16:12:25;26.50;53.60
73254;DHT22;61474;50.834;4.552;2022-09-06T16:14:50;26.50;53.70
73254;DHT22;61474;50.834;4.552;2022-09-06T16:17:16;26.40;54.50
73254;DHT22;61474;50.834;4.552;2022-09-06T16:19:41;26.40;55.10
73254;DHT22;61474;50.834;4.552;2022-09-06T16:22:07;26.30;55.80
73254;DHT22;61474;50.834;4.552;2022-09-06T16:24:32;26.30;56.20
73254;DHT22;61474;50.834;4.552;2022-09-06T16:26:58;26.20;56.30
73254;DHT22;61474;50.834;4.552;2022-09-06T16:29:23;26.30;56.70
73254;DHT22;61474;50.834;4.552;2022-09-06T16:31:49;26.20;56.70
73254;DHT22;61474;50.834;4.552;2022-09-06T16:34:16;26.20;56.70
73254;DHT22;61474;50.834;4.552;2022-09-06T16:36:42;26.00;57.30
73254;DHT22;61474;50.834;4.552;2022-09-06T16:39:07;26.10;57.90
73254;DHT22;61474;50.834;4.552;2022-09-06T16:41:40;26.20;57.80
73254;DHT22;61474;50.834;4.552;2022-09-06T16:44:10;26.20;58.30
73254;DHT22;61474;50.834;4.552;2022-09-06T16:46:41;26.10;58.40
73254;DHT22;61474;50.834;4.552;2022-09-06T16:49:06;26.00;58.40
73254;DHT22;61474;50.834;4.552;2022-09-06T16:51:32;26.20;58.90
73254;DHT22;61474;50.834;4.552;2022-09-06T16:53:58;26.20;59.00
73254;DHT22;61474;50.834;4.552;2022-09-06T16:56:25;26.30;59.50
73254;DHT22;61474;50.834;4.552;2022-09-06T16:58:51;26.40;60.30
73254;DHT22;61474;50.834;4.552;2022-09-06T17:01:17;26.30;60.80
73254;DHT22;61474;50.834;4.552;2022-09-06T17:03:43;26.20;61.40